createdAt,value
2022-08-17T00:02:26.755Z,65.70
2022-08-17T00:05:33.289Z,65.34
2022-08-17T00:08:40.519Z,65.75
2022-08-17T00:12:34.686Z,65.74
2022-08-17T00:15:08.296Z,65.68
2022-08-17T00:18:53.744Z,65.18
2022-08-17T00:22:29.402Z,65.29
2022-08-17T00:25:03.050Z,65.51
2022-08-17T00:28:06.263Z,66.90
2022-08-17T00:31:10.765Z,68.20
2022-08-17T00:34:13.265Z,67.71
2022-08-17T00:37:16.271Z,67.68
2022-08-17T00:40:19.933Z,67.14
2022-08-17T00:43:33.368Z,68.20
2022-08-17T00:46:41.109Z,67.32
2022-08-17T00:49:43.910Z,67.29
2022-08-17T00:52:56.497Z,67.57
2022-08-17T00:56:05.980Z,68.01
2022-08-17T00:59:09.291Z,67.98
2022-08-17T01:02:14.957Z,68.66
2022-08-17T01:05:21.278Z,67.55
2022-08-17T01:08:26.567Z,67.68
2022-08-17T01:11:30.635Z,67.13
2022-08-17T01:14:33.464Z,66.19
2022-08-17T01:17:36.218Z,65.75
2022-08-17T01:20:49.087Z,66.21
2022-08-17T01:23:51.698Z,66.15
2022-08-17T01:26:56.745Z,66.78
2022-08-17T01:30:03.998Z,67.00
2022-08-17T01:33:11.421Z,67.27
2022-08-17T01:36:14.131Z,68.04
2022-08-17T01:39:29.055Z,67.75
2022-08-17T01:42:35.440Z,67.54
2022-08-17T01:45:42.301Z,67.95
2022-08-17T01:48:47.673Z,68.51
2022-08-17T01:51:50.598Z,68.44
2022-08-17T01:54:53.536Z,69.23
2022-08-17T01:57:56.391Z,69.16
2022-08-17T02:01:00.067Z,69.01
2022-08-17T02:04:05.543Z,68.68
2022-08-17T02:07:08.153Z,69.50
2022-08-17T02:10:19.793Z,68.86
2022-08-17T02:13:23.371Z,68.33
2022-08-17T02:16:26.201Z,67.81
2022-08-17T02:19:31.323Z,68.15
2022-08-17T02:22:35.552Z,67.73
2022-08-17T02:25:39.600Z,67.83
2022-08-17T02:28:42.487Z,67.73
2022-08-17T02:31:44.973Z,67.60
2022-08-17T02:34:48.120Z,67.96
2022-08-17T02:37:51.811Z,67.67
2022-08-17T02:40:59.230Z,68.53
2022-08-17T02:44:01.934Z,68.90
2022-08-17T02:47:04.877Z,69.01
2022-08-17T02:50:09.169Z,69.94
2022-08-17T02:53:12.151Z,70.44
2022-08-17T02:56:14.646Z,69.69
2022-08-17T02:59:18.341Z,70.09
2022-08-17T03:02:20.861Z,70.80
2022-08-17T03:05:26.326Z,70.67
2022-08-17T03:08:29.716Z,71.15
2022-08-17T03:11:32.803Z,71.00
2022-08-17T03:14:42.691Z,70.90
2022-08-17T03:17:45.528Z,70.73
2022-08-17T03:20:49.838Z,70.98
2022-08-17T03:23:54.514Z,70.91
2022-08-17T03:26:57.276Z,70.32
2022-08-17T03:30:00.138Z,71.07
2022-08-17T03:33:04.424Z,71.33
2022-08-17T03:36:07.505Z,71.09
2022-08-17T03:39:10.488Z,72.03
2022-08-17T03:42:31.243Z,71.69
2022-08-17T03:45:54.990Z,72.18
2022-08-17T03:49:16.438Z,71.81
2022-08-17T03:52:37.368Z,71.31
2022-08-17T03:56:00.357Z,71.16
2022-08-17T03:59:02.906Z,71.22
2022-08-17T04:02:09.777Z,72.07
2022-08-17T04:05:12.694Z,71.38
2022-08-17T04:08:15.439Z,71.17
2022-08-17T04:11:18.519Z,71.04
2022-08-17T04:14:21.310Z,71.10
2022-08-17T04:17:27.409Z,71.18
2022-08-17T04:20:33.436Z,71.90
2022-08-17T04:23:37.912Z,72.61
2022-08-17T04:26:53.039Z,71.54
2022-08-17T04:29:57.217Z,71.83
2022-08-17T04:33:07.265Z,71.36
2022-08-17T04:36:15.396Z,70.25
2022-08-17T04:39:19.658Z,70.10
2022-08-17T04:42:22.457Z,69.76
2022-08-17T04:45:24.961Z,69.78
2022-08-17T04:48:38.136Z,69.47
2022-08-17T04:51:54.450Z,69.31
2022-08-17T04:54:59.158Z,68.73
2022-08-17T04:58:01.690Z,69.58
2022-08-17T05:01:06.034Z,69.76
2022-08-17T05:04:33.035Z,67.80
2022-08-17T05:07:34.310Z,67.38
2022-08-17T05:10:39.131Z,67.05
2022-08-17T05:13:50.362Z,66.56
2022-08-17T05:16:53.046Z,66.02
2022-08-17T05:19:55.971Z,64.49
2022-08-17T05:23:01.043Z,63.15
2022-08-17T05:26:04.363Z,62.56
2022-08-17T05:29:10.419Z,62.73
2022-08-17T05:32:39.571Z,62.39
2022-08-17T05:35:38.248Z,62.13
2022-08-17T05:38:41.536Z,62.48
2022-08-17T05:41:46.678Z,62.25
2022-08-17T05:44:49.576Z,61.67
2022-08-17T05:47:52.182Z,61.05
2022-08-17T05:51:10.045Z,60.81
2022-08-17T05:54:49.697Z,60.33
2022-08-17T05:58:21.754Z,60.48
2022-08-17T06:01:59.173Z,60.24
2022-08-17T06:05:26.910Z,59.54
2022-08-17T06:08:51.693Z,58.65
2022-08-17T06:12:20.376Z,58.73
2022-08-17T06:15:33.316Z,57.99
2022-08-17T06:18:45.823Z,57.71
2022-08-17T06:21:51.599Z,56.67
2022-08-17T06:24:57.270Z,56.39
2022-08-17T06:28:05.176Z,56.20
2022-08-17T06:31:17.492Z,56.15
2022-08-17T06:34:20.910Z,56.05
2022-08-17T06:37:36.374Z,55.67
2022-08-17T06:41:10.310Z,54.80
2022-08-17T06:44:43.113Z,54.19
2022-08-17T06:47:50.034Z,53.96
2022-08-17T06:51:00.175Z,53.39
2022-08-17T06:54:08.180Z,53.08
2022-08-17T06:57:10.919Z,52.35
2022-08-17T07:00:18.195Z,51.95
2022-08-17T07:03:28.121Z,51.50
2022-08-17T07:06:37.771Z,50.94
2022-08-17T07:09:41.358Z,50.57
2022-08-17T07:12:44.879Z,49.83
2022-08-17T07:15:51.814Z,48.98
2022-08-17T07:18:59.692Z,48.52
2022-08-17T07:22:16.191Z,46.92
2022-08-17T07:25:20.797Z,43.64
2022-08-17T07:28:24.590Z,40.83
2022-08-17T07:31:30.568Z,39.97
2022-08-17T07:35:10.649Z,37.43
2022-08-17T07:38:54.543Z,35.50
2022-08-17T07:42:04.786Z,35.05
2022-08-17T07:45:28.028Z,32.97
2022-08-17T07:48:35.944Z,31.38
2022-08-17T07:51:56.683Z,32.04
2022-08-17T07:55:27.545Z,32.58
2022-08-17T07:58:30.172Z,33.12
2022-08-17T08:01:39.355Z,31.14
2022-08-17T08:05:06.683Z,29.99
2022-08-17T08:08:30.848Z,32.05
2022-08-17T08:11:37.542Z,30.75
2022-08-17T08:14:43.643Z,30.36
2022-08-17T08:17:54.472Z,29.40
2022-08-17T08:21:07.055Z,29.72
2022-08-17T08:24:19.622Z,28.63
2022-08-17T08:27:29.167Z,29.34
2022-08-17T08:30:40.819Z,30.10
2022-08-17T08:33:56.761Z,29.99
2022-08-17T08:37:16.494Z,27.86
2022-08-17T08:40:32.410Z,29.96
2022-08-17T08:44:06.561Z,25.61
2022-08-17T08:47:26.605Z,26.19
2022-08-17T08:51:02.227Z,25.01
2022-08-17T08:54:38.722Z,27.51
2022-08-17T08:57:48.994Z,24.30
2022-08-17T09:00:56.948Z,24.84
2022-08-17T09:05:02.655Z,27.88
2022-08-17T09:08:04.604Z,26.80
2022-08-17T09:12:02.428Z,23.81
2022-08-17T09:15:18.624Z,23.90
2022-08-17T09:19:02.468Z,23.11
2022-08-17T09:22:14.843Z,24.79
2022-08-17T09:25:26.343Z,22.81
2022-08-17T09:28:33.231Z,23.53
2022-08-17T09:31:49.071Z,24.39
2022-08-17T09:35:01.582Z,22.37
2022-08-17T09:38:36.073Z,22.30
2022-08-17T09:41:49.328Z,21.99
2022-08-17T09:44:58.530Z,20.49
2022-08-17T09:48:41.953Z,21.10
2022-08-17T09:51:49.424Z,21.64
2022-08-17T09:54:54.002Z,21.65
2022-08-17T09:58:07.743Z,21.35
2022-08-17T10:01:39.976Z,22.05
2022-08-17T10:05:27.915Z,20.61
2022-08-17T10:08:44.715Z,21.36
2022-08-17T10:12:30.055Z,19.51
2022-08-17T10:15:54.028Z,19.09
2022-08-17T10:19:05.516Z,18.35
2022-08-17T10:22:47.806Z,26.24
2022-08-17T10:26:25.300Z,20.36
2022-08-17T10:29:49.757Z,20.07
2022-08-17T10:32:56.546Z,18.79
2022-08-17T10:36:21.821Z,19.02
2022-08-17T10:39:53.574Z,17.97
2022-08-17T10:43:39.492Z,19.76
2022-08-17T10:46:52.378Z,19.22
2022-08-17T10:49:56.370Z,18.73
2022-08-17T10:52:59.408Z,19.02
2022-08-17T10:56:14.143Z,19.50
2022-08-17T10:59:37.191Z,18.88
2022-08-17T11:02:49.851Z,18.37
2022-08-17T11:06:13.097Z,18.92
2022-08-17T11:09:39.037Z,19.08
2022-08-17T11:13:02.111Z,20.35
2022-08-17T11:16:32.713Z,20.47
2022-08-17T11:19:58.086Z,21.13
2022-08-17T11:23:12.913Z,20.31
2022-08-17T11:26:26.118Z,20.64
2022-08-17T11:29:37.479Z,20.20
2022-08-17T11:32:47.585Z,19.79
2022-08-17T11:36:07.917Z,20.07
2022-08-17T11:39:23.554Z,24.01
2022-08-17T11:42:32.112Z,20.23
2022-08-17T11:45:45.938Z,19.42
2022-08-17T11:49:06.920Z,20.98
2022-08-17T11:52:38.250Z,21.35
2022-08-17T11:55:44.824Z,20.52
2022-08-17T11:58:48.645Z,20.11
2022-08-17T12:01:55.819Z,22.66
2022-08-17T12:05:28.168Z,20.94
2022-08-17T12:08:32.756Z,20.38
2022-08-17T12:12:14.341Z,22.13
2022-08-17T12:15:25.738Z,24.65
2022-08-17T12:18:35.773Z,24.87
2022-08-17T12:21:46.329Z,25.69
2022-08-17T12:25:05.021Z,27.03
2022-08-17T12:28:47.130Z,26.93
2022-08-17T12:31:52.150Z,27.59
2022-08-17T12:34:54.817Z,26.52
2022-08-17T12:37:58.010Z,26.45
2022-08-17T12:41:21.238Z,27.43
2022-08-17T12:44:28.254Z,27.91
2022-08-17T12:47:31.926Z,28.09
2022-08-17T12:50:41.268Z,28.46
2022-08-17T12:53:52.587Z,28.81
2022-08-17T12:57:02.853Z,28.73
2022-08-17T13:00:16.514Z,27.74
2022-08-17T13:03:23.004Z,28.21
2022-08-17T13:06:33.876Z,27.91
2022-08-17T13:09:40.478Z,28.00
2022-08-17T13:12:43.348Z,27.89
2022-08-17T13:15:55.742Z,28.09
2022-08-17T13:19:15.983Z,29.12
2022-08-17T13:22:23.197Z,29.29
2022-08-17T13:25:26.874Z,29.69
2022-08-17T13:28:35.817Z,30.03
2022-08-17T13:31:52.076Z,29.71
2022-08-17T13:35:11.760Z,30.03
2022-08-17T13:38:45.694Z,29.18
2022-08-17T13:41:50.329Z,29.79
2022-08-17T13:44:52.827Z,29.42
2022-08-17T13:48:22.378Z,29.20
2022-08-17T13:51:27.885Z,29.02
2022-08-17T13:54:35.568Z,28.69
2022-08-17T13:57:38.180Z,28.45
2022-08-17T14:00:41.660Z,28.67
2022-08-17T14:03:44.538Z,28.55
2022-08-17T14:07:12.955Z,29.17
2022-08-17T14:10:18.385Z,29.40
2022-08-17T14:13:21.288Z,29.82
2022-08-17T14:16:24.112Z,29.48
2022-08-17T14:19:27.000Z,29.61
2022-08-17T14:22:32.763Z,29.32
2022-08-17T14:25:35.604Z,29.62
2022-08-17T14:28:38.906Z,30.00
2022-08-17T14:31:58.679Z,29.60
2022-08-17T14:35:02.828Z,29.18
2022-08-17T14:38:06.083Z,29.72
2022-08-17T14:41:08.874Z,29.96
2022-08-17T14:44:12.621Z,29.83
2022-08-17T14:47:15.997Z,30.15
2022-08-17T14:50:19.626Z,30.09
2022-08-17T14:53:22.585Z,30.09
2022-08-17T14:56:26.136Z,30.04
2022-08-17T14:59:29.022Z,29.65
2022-08-17T15:02:43.484Z,29.63
2022-08-17T15:05:46.915Z,29.79
2022-08-17T15:08:49.749Z,29.76
2022-08-17T15:11:53.893Z,29.65
2022-08-17T15:14:57.131Z,29.35
2022-08-17T15:18:02.585Z,29.47
2022-08-17T15:21:07.478Z,29.52
2022-08-17T15:24:10.563Z,29.55
2022-08-17T15:27:13.085Z,29.66
2022-08-17T15:30:17.021Z,29.87
2022-08-17T15:33:29.234Z,30.18
2022-08-17T15:36:33.265Z,29.81
2022-08-17T15:39:35.859Z,30.04
2022-08-17T15:42:41.193Z,29.69
2022-08-17T15:45:43.995Z,29.93
2022-08-17T15:48:49.388Z,29.88
2022-08-17T15:51:51.887Z,29.88
2022-08-17T15:55:00.153Z,29.61
2022-08-17T15:58:03.181Z,29.43
2022-08-17T16:01:16.511Z,29.59
2022-08-17T16:04:26.820Z,29.96
2022-08-17T16:07:33.827Z,29.98
2022-08-17T16:10:36.855Z,30.11
2022-08-17T16:13:40.820Z,30.30
2022-08-17T16:16:43.656Z,30.47
2022-08-17T16:19:46.383Z,31.02
2022-08-17T16:22:50.398Z,31.15
2022-08-17T16:25:54.375Z,31.07
2022-08-17T16:28:58.795Z,31.30
2022-08-17T16:32:14.968Z,31.58
2022-08-17T16:35:18.649Z,32.26
2022-08-17T16:38:22.315Z,32.48
2022-08-17T16:41:44.376Z,32.97
2022-08-17T16:44:46.886Z,33.31
2022-08-17T16:47:50.288Z,33.69
2022-08-17T16:51:03.316Z,34.22
2022-08-17T16:54:07.475Z,34.65
2022-08-17T16:57:11.213Z,35.51
2022-08-17T17:00:15.803Z,35.96
2022-08-17T17:03:20.990Z,36.07
2022-08-17T17:06:48.523Z,36.20
2022-08-17T17:09:52.708Z,36.82
2022-08-17T17:13:01.130Z,37.25
2022-08-17T17:16:18.407Z,37.04
2022-08-17T17:19:34.947Z,37.26
2022-08-17T17:22:55.488Z,37.38
2022-08-17T17:26:48.391Z,37.85
2022-08-17T17:29:50.876Z,38.49
2022-08-17T17:33:10.625Z,38.72
2022-08-17T17:36:23.120Z,38.94
2022-08-17T17:39:49.098Z,39.08
2022-08-17T17:42:55.134Z,40.72
2022-08-17T17:46:27.742Z,40.14
2022-08-17T17:49:46.049Z,40.74
2022-08-17T17:53:17.422Z,42.98
2022-08-17T17:56:50.050Z,44.02
2022-08-17T18:00:24.324Z,43.06
2022-08-17T18:04:00.829Z,43.25
2022-08-17T18:07:12.390Z,43.48
2022-08-17T18:10:41.968Z,43.86
2022-08-17T18:13:54.189Z,45.00
2022-08-17T18:16:59.363Z,44.92
2022-08-17T18:20:03.947Z,44.62
2022-08-17T18:23:07.469Z,45.07
2022-08-17T18:26:10.195Z,46.66
2022-08-17T18:29:35.974Z,46.71
2022-08-17T18:32:46.487Z,46.96
2022-08-17T18:35:58.674Z,47.04
2022-08-17T18:39:19.206Z,46.63
2022-08-17T18:42:27.726Z,46.82
2022-08-17T18:45:33.806Z,46.95
2022-08-17T18:48:51.160Z,47.55
2022-08-17T18:52:14.384Z,47.97
2022-08-17T18:55:27.891Z,48.83
2022-08-17T18:58:30.556Z,48.69
2022-08-17T19:02:20.599Z,48.34
2022-08-17T19:05:35.117Z,49.54
2022-08-17T19:08:38.026Z,49.33
2022-08-17T19:11:41.159Z,49.58
2022-08-17T19:14:44.177Z,49.96
2022-08-17T19:18:04.002Z,49.92
2022-08-17T19:21:13.068Z,50.73
2022-08-17T19:24:22.215Z,51.70
2022-08-17T19:27:41.680Z,52.29
2022-08-17T19:30:45.029Z,54.90
2022-08-17T19:33:48.680Z,53.44
2022-08-17T19:37:00.286Z,54.05
2022-08-17T19:40:41.728Z,57.24
2022-08-17T19:43:57.952Z,57.30
2022-08-17T19:47:54.344Z,56.76
2022-08-17T19:51:04.789Z,57.27
2022-08-17T19:54:31.489Z,59.02
2022-08-17T19:57:57.064Z,58.58
2022-08-17T20:01:00.937Z,58.58
2022-08-17T20:04:13.151Z,58.61
2022-08-17T20:07:20.401Z,58.73
2022-08-17T20:10:47.359Z,59.50
2022-08-17T20:14:08.350Z,60.26
2022-08-17T20:17:12.182Z,60.99
2022-08-17T20:20:38.406Z,59.70
2022-08-17T20:24:14.429Z,58.46
2022-08-17T20:27:31.597Z,57.89
2022-08-17T20:30:40.987Z,57.60
2022-08-17T20:33:43.905Z,57.29
2022-08-17T20:37:08.572Z,57.68
2022-08-17T20:40:17.731Z,58.22
2022-08-17T20:43:32.774Z,58.42
2022-08-17T20:46:38.429Z,58.64
2022-08-17T20:49:41.396Z,58.31
2022-08-17T20:52:58.284Z,57.39
2022-08-17T20:56:01.116Z,55.81
2022-08-17T20:59:03.800Z,54.66
2022-08-17T21:02:12.410Z,54.75
2022-08-17T21:05:57.392Z,52.89
2022-08-17T21:09:12.675Z,50.60
2022-08-17T21:12:42.043Z,49.62
2022-08-17T21:16:03.120Z,50.00
2022-08-17T21:19:16.953Z,52.75
2022-08-17T21:22:34.264Z,54.52
2022-08-17T21:25:58.218Z,55.78
2022-08-17T21:29:30.144Z,57.29
2022-08-17T21:32:30.375Z,58.28
2022-08-17T21:35:54.414Z,58.38
2022-08-17T21:39:10.332Z,58.76
2022-08-17T21:42:13.169Z,59.65
2022-08-17T21:45:27.472Z,60.30
2022-08-17T21:48:32.484Z,60.75
2022-08-17T21:51:37.136Z,60.56
2022-08-17T21:54:44.450Z,62.00
2022-08-17T21:57:53.066Z,62.09
2022-08-17T22:01:26.460Z,62.59
2022-08-17T22:04:32.945Z,63.69
2022-08-17T22:07:44.364Z,63.78
2022-08-17T22:10:50.651Z,63.56
2022-08-17T22:14:05.208Z,63.72
2022-08-17T22:17:19.127Z,63.29
2022-08-17T22:20:22.295Z,63.12
2022-08-17T22:23:54.418Z,61.63
2022-08-17T22:27:03.069Z,62.00
2022-08-17T22:30:25.849Z,62.34
2022-08-17T22:33:47.969Z,62.53
2022-08-17T22:37:20.811Z,63.03
2022-08-17T22:40:32.641Z,63.58
2022-08-17T22:43:38.212Z,64.95
2022-08-17T22:47:17.057Z,64.80
2022-08-17T22:50:26.475Z,64.57
2022-08-17T22:53:47.665Z,64.62
2022-08-17T22:57:18.724Z,65.51
2022-08-17T23:00:29.267Z,64.70
2022-08-17T23:03:32.076Z,64.85
2022-08-17T23:06:36.241Z,63.79
2022-08-17T23:09:39.435Z,63.65
2022-08-17T23:12:42.301Z,63.38
2022-08-17T23:15:45.956Z,64.26
2022-08-17T23:18:52.205Z,63.63
2022-08-17T23:21:56.615Z,63.98
2022-08-17T23:24:59.864Z,64.11
2022-08-17T23:28:05.461Z,64.04
2022-08-17T23:31:07.988Z,63.84
2022-08-17T23:34:13.272Z,63.56
2022-08-17T23:37:20.477Z,62.96
2022-08-17T23:40:23.895Z,62.97
2022-08-17T23:43:28.375Z,63.86
2022-08-17T23:46:31.263Z,63.77
2022-08-17T23:49:34.009Z,64.16
2022-08-17T23:52:37.938Z,63.74
2022-08-17T23:55:40.422Z,62.97
2022-08-17T23:58:44.871Z,62.92
